createdAt,value
2016-10-27T00:00:13.618Z,1019.21
2016-10-27T00:01:23.178Z,1019.23
2016-10-27T00:02:32.748Z,1019.23
2016-10-27T00:03:42.624Z,1019.2
2016-10-27T00:04:52.561Z,1019.24
2016-10-27T00:06:02.161Z,1019.17
2016-10-27T00:07:11.983Z,1019.19
2016-10-27T00:08:21.847Z,1019.15
2016-10-27T00:09:31.827Z,1019.22
2016-10-27T00:10:41.677Z,1019.22
2016-10-27T00:11:51.868Z,1019.24
2016-10-27T00:13:01.498Z,1019.24
2016-10-27T00:14:11.423Z,1019.23
2016-10-27T00:15:21.473Z,1019.22
2016-10-27T00:16:31.531Z,1019.24
2016-10-27T00:17:41.714Z,1019.18
2016-10-27T00:18:51.362Z,1019.12
2016-10-27T00:20:01.443Z,1019.06
2016-10-27T00:21:10.945Z,1019.09
2016-10-27T00:22:21.204Z,1019.11
2016-10-27T00:23:30.771Z,1019.17
2016-10-27T00:24:40.269Z,1019.22
2016-10-27T00:25:49.849Z,1019.25
2016-10-27T00:26:59.566Z,1019.27
2016-10-27T00:28:10.204Z,1019.23
2016-10-27T00:29:19.634Z,1019.23
2016-10-27T00:30:29.886Z,1019.27
2016-10-27T00:31:39.486Z,1019.24
2016-10-27T00:32:49.668Z,1019.25
2016-10-27T00:34:00.234Z,1019.26
2016-10-27T00:35:09.823Z,1019.26
2016-10-27T00:36:19.460Z,1019.27
2016-10-27T00:37:29.067Z,1019.29
2016-10-27T00:38:38.750Z,1019.28
2016-10-27T00:39:48.957Z,1019.27
2016-10-27T00:40:58.529Z,1019.34
2016-10-27T00:42:08.612Z,1019.36
2016-10-27T00:43:18.106Z,1019.36
2016-10-27T00:44:27.779Z,1019.38
2016-10-27T00:45:38.338Z,1019.32
2016-10-27T00:46:48.015Z,1019.3
2016-10-27T00:47:58.128Z,1019.26
2016-10-27T00:49:07.755Z,1019.21
2016-10-27T00:50:17.927Z,1019.16
2016-10-27T00:51:27.797Z,1019.17
2016-10-27T00:52:38.211Z,1019.14
2016-10-27T00:53:47.953Z,1019.16
2016-10-27T00:54:57.594Z,1019.15
2016-10-27T00:56:07.533Z,1019.07
2016-10-27T00:57:18.451Z,1019.11
2016-10-27T00:58:28.686Z,1019.1
2016-10-27T00:59:38.637Z,1019.08
2016-10-27T01:00:48.602Z,1019.06
2016-10-27T01:01:58.524Z,1019.04
2016-10-27T01:03:08.745Z,1019.05
2016-10-27T01:04:18.296Z,1019.05
2016-10-27T01:05:28.267Z,1019.05
2016-10-27T01:06:38.220Z,1019.05
2016-10-27T01:07:47.892Z,1019.06
2016-10-27T01:08:58.232Z,1019.05
2016-10-27T01:10:07.894Z,1019.05
2016-10-27T01:11:17.688Z,1019
2016-10-27T01:12:27.618Z,1019
2016-10-27T01:13:37.223Z,1018.93
2016-10-27T01:14:47.032Z,1018.93
2016-10-27T01:15:56.709Z,1018.94
2016-10-27T01:17:06.749Z,1018.96
2016-10-27T01:18:16.592Z,1018.96
2016-10-27T01:19:26.275Z,1018.89
2016-10-27T01:20:36.511Z,1018.94
2016-10-27T01:21:46.331Z,1019
2016-10-27T01:22:56.832Z,1018.98
2016-10-27T01:24:06.620Z,1018.97
2016-10-27T01:25:16.087Z,1018.96
2016-10-27T01:26:25.992Z,1018.97
2016-10-27T01:27:35.694Z,1018.96
2016-10-27T01:28:45.343Z,1018.95
2016-10-27T01:29:55.064Z,1019
2016-10-27T01:31:06.082Z,1019.03
2016-10-27T01:32:16.679Z,1019
2016-10-27T01:33:26.626Z,1018.97
2016-10-27T01:34:36.337Z,1018.95
2016-10-27T01:35:46.501Z,1018.92
2016-10-27T01:36:56.352Z,1018.93
2016-10-27T01:38:06.459Z,1018.89
2016-10-27T01:39:16.196Z,1018.85
2016-10-27T01:40:25.832Z,1018.88
2016-10-27T01:41:35.829Z,1018.91
2016-10-27T01:42:45.429Z,1018.9
2016-10-27T01:43:55.855Z,1018.9
2016-10-27T01:45:05.441Z,1018.88
2016-10-27T01:46:15.480Z,1018.89
2016-10-27T01:47:25.411Z,1018.92
2016-10-27T01:48:35.021Z,1018.92
2016-10-27T01:49:45.260Z,1018.96
2016-10-27T01:50:55.392Z,1018.96
2016-10-27T01:52:05.357Z,1018.96
2016-10-27T01:53:15.024Z,1018.94
2016-10-27T01:54:24.582Z,1018.95
2016-10-27T01:55:34.409Z,1018.91
2016-10-27T01:56:43.891Z,1018.91
2016-10-27T01:57:53.597Z,1018.93
2016-10-27T01:59:03.582Z,1018.94
2016-10-27T02:00:13.265Z,1018.94
2016-10-27T02:01:23.120Z,1018.95
2016-10-27T02:02:32.653Z,1018.98
2016-10-27T02:03:42.380Z,1019.01
2016-10-27T02:05:06.567Z,1019.04
2016-10-27T02:06:16.551Z,1019.08
2016-10-27T02:07:26.612Z,1019.07
2016-10-27T02:08:36.895Z,1019.12
2016-10-27T02:09:46.577Z,1019.13
2016-10-27T02:10:56.610Z,1019.16
2016-10-27T02:12:06.826Z,1019.18
2016-10-27T02:13:16.981Z,1019.15
2016-10-27T02:14:26.867Z,1019.21
2016-10-27T02:15:36.394Z,1019.28
2016-10-27T02:16:45.971Z,1019.32
2016-10-27T02:17:56.212Z,1019.38
2016-10-27T02:19:06.351Z,1019.43
2016-10-27T02:20:15.952Z,1019.41
2016-10-27T02:21:25.436Z,1019.47
2016-10-27T02:22:35.310Z,1019.5
2016-10-27T02:23:44.757Z,1019.49
2016-10-27T02:24:54.551Z,1019.43
2016-10-27T02:26:04.442Z,1019.45
2016-10-27T02:27:14.302Z,1019.39
2016-10-27T02:28:24.131Z,1019.45
2016-10-27T02:29:33.589Z,1019.46
2016-10-27T02:30:43.370Z,1019.45
2016-10-27T02:31:53.837Z,1019.53
2016-10-27T02:33:03.315Z,1019.5
2016-10-27T02:34:12.804Z,1019.48
2016-10-27T02:35:22.607Z,1019.49
2016-10-27T02:36:32.804Z,1019.55
2016-10-27T02:37:42.588Z,1019.56
2016-10-27T02:38:52.386Z,1019.64
2016-10-27T02:40:01.874Z,1019.68
2016-10-27T02:41:11.558Z,1019.66
2016-10-27T02:42:21.605Z,1019.62
2016-10-27T02:45:40.011Z,1019.67
2016-10-27T02:48:14.215Z,1019.65
2016-10-27T02:49:23.735Z,1019.68
2016-10-27T02:50:33.175Z,1019.73
2016-10-27T02:51:43.213Z,1019.69
2016-10-27T02:52:53.023Z,1019.65
2016-10-27T02:54:03.209Z,1019.69
2016-10-27T02:55:13.676Z,1019.71
2016-10-27T02:56:23.475Z,1019.74
2016-10-27T02:57:33.313Z,1019.72
2016-10-27T02:58:42.788Z,1019.7
2016-10-27T02:59:53.165Z,1019.71
2016-10-27T03:01:03.369Z,1019.67
2016-10-27T03:02:13.566Z,1019.74
2016-10-27T03:03:22.989Z,1019.72
2016-10-27T03:04:32.435Z,1019.76
2016-10-27T03:05:41.965Z,1019.8
2016-10-27T03:06:51.728Z,1019.76
2016-10-27T03:08:01.502Z,1019.81
2016-10-27T03:09:10.989Z,1019.82
2016-10-27T03:10:21.110Z,1019.77
2016-10-27T03:11:30.992Z,1019.84
2016-10-27T03:12:40.814Z,1019.87
2016-10-27T03:13:50.711Z,1019.93
2016-10-27T03:15:00.155Z,1019.97
2016-10-27T03:16:09.605Z,1020.02
2016-10-27T03:17:19.513Z,1020.02
2016-10-27T03:18:29.652Z,1020.01
2016-10-27T03:19:39.111Z,1019.96
2016-10-27T03:20:48.667Z,1019.96
2016-10-27T03:21:58.481Z,1019.9
2016-10-27T03:23:08.356Z,1019.88
2016-10-27T03:24:18.746Z,1019.85
2016-10-27T03:25:28.637Z,1019.84
2016-10-27T03:26:38.093Z,1019.85
2016-10-27T03:27:47.520Z,1019.84
2016-10-27T03:28:56.984Z,1019.86
2016-10-27T03:30:06.742Z,1019.84
2016-10-27T03:31:16.550Z,1019.89
2016-10-27T03:33:50.311Z,1019.93
2016-10-27T03:35:00.022Z,1019.99
2016-10-27T03:36:09.890Z,1019.97
2016-10-27T03:37:19.908Z,1020.02
2016-10-27T03:38:29.934Z,1020.03
2016-10-27T03:39:39.437Z,1020.1
2016-10-27T03:40:49.349Z,1020.06
2016-10-27T03:41:59.551Z,1020.11
2016-10-27T03:43:09.685Z,1020.06
2016-10-27T03:44:19.130Z,1020.09
2016-10-27T03:45:29.543Z,1020.1
2016-10-27T03:46:39.881Z,1020.1
2016-10-27T03:47:50.221Z,1020.11
2016-10-27T03:48:59.848Z,1020.05
2016-10-27T03:50:09.408Z,1020.03
2016-10-27T03:51:18.876Z,1020.06
2016-10-27T03:52:28.675Z,1020.08
2016-10-27T03:53:38.672Z,1020.08
2016-10-27T03:54:48.700Z,1020.08
2016-10-27T03:55:58.628Z,1020.08
2016-10-27T03:57:08.480Z,1020.12
2016-10-27T03:58:18.048Z,1020.07
2016-10-27T03:59:27.904Z,1020.1
2016-10-27T04:00:37.485Z,1020.09
2016-10-27T04:01:47.896Z,1020.09
2016-10-27T04:02:57.891Z,1020.06
2016-10-27T04:04:08.458Z,1020.03
2016-10-27T04:05:18.747Z,1020.01
2016-10-27T04:06:30.393Z,1020.01
2016-10-27T04:07:40.093Z,1020.04
2016-10-27T04:08:49.762Z,1020.06
2016-10-27T04:09:59.399Z,1020.07
2016-10-27T04:11:09.661Z,1020.04
2016-10-27T04:12:19.766Z,1020.02
2016-10-27T04:13:30.988Z,1020.01
2016-10-27T04:14:41.874Z,1020.06
2016-10-27T04:15:52.045Z,1020.05
2016-10-27T04:17:02.226Z,1020.06
2016-10-27T04:18:13.550Z,1020.03
2016-10-27T04:19:23.846Z,1020
2016-10-27T04:20:34.460Z,1020
2016-10-27T04:21:44.940Z,1020.08
2016-10-27T04:22:55.309Z,1020.12
2016-10-27T04:24:05.307Z,1020.12
2016-10-27T04:25:15.204Z,1020.18
2016-10-27T04:26:25.151Z,1020.21
2016-10-27T04:27:35.623Z,1020.24
2016-10-27T04:28:46.938Z,1020.26
2016-10-27T04:30:04.570Z,1020.21
2016-10-27T04:31:15.188Z,1020.24
2016-10-27T04:32:39.581Z,1020.2
2016-10-27T04:33:50.686Z,1020.18
2016-10-27T04:35:01.852Z,1020.2
2016-10-27T04:36:15.319Z,1020.23
2016-10-27T04:37:33.169Z,1020.22
2016-10-27T04:38:53.188Z,1020.21
2016-10-27T04:40:09.564Z,1020.2
2016-10-27T04:41:28.235Z,1020.2
2016-10-27T04:42:48.946Z,1020.22
2016-10-27T04:44:01.878Z,1020.2
2016-10-27T04:45:31.121Z,1020.18
2016-10-27T04:46:48.969Z,1020.22
2016-10-27T04:48:17.123Z,1020.23
2016-10-27T04:49:27.018Z,1020.21
2016-10-27T04:50:36.943Z,1020.23
2016-10-27T04:51:47.166Z,1020.15
2016-10-27T04:52:58.990Z,1020.17
2016-10-27T04:54:09.691Z,1020.16
2016-10-27T04:55:20.826Z,1020.16
2016-10-27T04:56:32.953Z,1020.22
2016-10-27T04:57:43.137Z,1020.24
2016-10-27T04:58:53.154Z,1020.3
2016-10-27T05:00:05.274Z,1020.29
2016-10-27T05:01:16.731Z,1020.27
2016-10-27T05:02:26.689Z,1020.31
2016-10-27T05:03:36.459Z,1020.39
2016-10-27T05:05:01.063Z,1020.38
2016-10-27T05:06:10.558Z,1020.44
2016-10-27T05:07:21.152Z,1020.41
2016-10-27T05:08:31.107Z,1020.41
2016-10-27T05:09:40.837Z,1020.42
2016-10-27T05:10:50.962Z,1020.44
2016-10-27T05:12:00.583Z,1020.44
2016-10-27T05:13:10.236Z,1020.4
2016-10-27T05:14:21.235Z,1020.42
2016-10-27T05:15:31.772Z,1020.42
2016-10-27T05:16:42.267Z,1020.39
2016-10-27T05:17:52.315Z,1020.37
2016-10-27T05:19:02.086Z,1020.41
2016-10-27T05:20:12.301Z,1020.44
2016-10-27T05:21:22.153Z,1020.44
2016-10-27T05:22:33.122Z,1020.47
2016-10-27T05:23:42.802Z,1020.49
2016-10-27T05:24:53.155Z,1020.47
2016-10-27T05:26:02.613Z,1020.48
2016-10-27T05:27:12.137Z,1020.56
2016-10-27T05:28:21.934Z,1020.55
2016-10-27T05:29:31.926Z,1020.6
2016-10-27T05:30:41.505Z,1020.62
2016-10-27T05:31:51.361Z,1020.63
2016-10-27T05:33:00.981Z,1020.63
2016-10-27T05:34:10.891Z,1020.65
2016-10-27T05:35:20.589Z,1020.61
2016-10-27T05:36:30.113Z,1020.61
2016-10-27T05:37:39.721Z,1020.65
2016-10-27T05:38:49.973Z,1020.63
2016-10-27T05:40:01.228Z,1020.63
2016-10-27T05:41:11.001Z,1020.67
2016-10-27T05:42:21.044Z,1020.72
2016-10-27T05:43:30.608Z,1020.75
2016-10-27T05:44:40.161Z,1020.76
2016-10-27T05:45:50.693Z,1020.82
2016-10-27T05:47:01.571Z,1020.8
2016-10-27T05:48:12.011Z,1020.77
2016-10-27T05:49:21.921Z,1020.81
2016-10-27T05:50:31.777Z,1020.77
2016-10-27T05:51:41.553Z,1020.78
2016-10-27T05:52:51.003Z,1020.8
2016-10-27T05:54:00.914Z,1020.77
2016-10-27T05:55:10.760Z,1020.78
2016-10-27T05:56:20.286Z,1020.75
2016-10-27T05:57:30.510Z,1020.76
2016-10-27T05:58:40.525Z,1020.79
2016-10-27T05:59:50.367Z,1020.78
2016-10-27T06:01:00.181Z,1020.77
2016-10-27T06:02:10.494Z,1020.83
2016-10-27T06:03:20.320Z,1020.87
2016-10-27T06:04:30.509Z,1020.88
2016-10-27T06:05:40.308Z,1020.88
2016-10-27T06:06:49.891Z,1020.93
2016-10-27T06:07:59.421Z,1020.92
2016-10-27T06:09:09.349Z,1020.93
2016-10-27T06:10:19.191Z,1020.92
2016-10-27T06:11:29.437Z,1020.92
2016-10-27T06:12:38.888Z,1020.87
2016-10-27T06:13:48.681Z,1020.9
2016-10-27T06:14:58.516Z,1020.99
2016-10-27T06:16:08.544Z,1020.97
2016-10-27T06:17:18.900Z,1021
2016-10-27T06:18:28.808Z,1020.99
2016-10-27T06:19:38.375Z,1020.99
2016-10-27T06:20:48.237Z,1021
2016-10-27T06:21:58.262Z,1020.95
2016-10-27T06:23:08.287Z,1020.96
2016-10-27T06:24:17.882Z,1020.95
2016-10-27T06:25:27.423Z,1020.91
2016-10-27T06:26:37.252Z,1020.97
2016-10-27T06:27:47.396Z,1020.98
2016-10-27T06:28:57.135Z,1021.05
2016-10-27T06:30:06.927Z,1021.07
2016-10-27T06:31:17.155Z,1021.04
2016-10-27T06:32:26.907Z,1021.11
2016-10-27T06:33:36.768Z,1021.14
2016-10-27T06:34:46.766Z,1021.16
2016-10-27T06:35:56.407Z,1021.22
2016-10-27T06:37:05.894Z,1021.17
2016-10-27T06:38:16.371Z,1021.19
2016-10-27T06:39:26.211Z,1021.19
2016-10-27T06:40:35.874Z,1021.2
2016-10-27T06:41:46.213Z,1021.16
2016-10-27T06:42:56.003Z,1021.11
2016-10-27T06:44:05.884Z,1021.15
2016-10-27T06:45:16.243Z,1021.21
2016-10-27T06:46:26.202Z,1021.22
2016-10-27T06:47:35.835Z,1021.16
2016-10-27T06:48:45.836Z,1021.17
2016-10-27T06:49:55.771Z,1021.12
2016-10-27T06:51:05.396Z,1021.16
2016-10-27T06:52:15.149Z,1021.19
2016-10-27T06:53:24.720Z,1021.23
2016-10-27T06:54:34.830Z,1021.25
2016-10-27T06:55:45.055Z,1021.27
2016-10-27T06:56:55.459Z,1021.29
2016-10-27T06:58:05.258Z,1021.39
2016-10-27T06:59:14.925Z,1021.41
2016-10-27T07:00:24.552Z,1021.42
2016-10-27T07:01:35.101Z,1021.49
2016-10-27T07:02:44.928Z,1021.49
2016-10-27T07:03:54.372Z,1021.45
2016-10-27T07:06:28.646Z,1021.48
2016-10-27T07:07:39.131Z,1021.5
2016-10-27T07:08:48.897Z,1021.52
2016-10-27T07:09:59.202Z,1021.46
2016-10-27T07:11:08.684Z,1021.47
2016-10-27T07:12:18.223Z,1021.46
2016-10-27T07:13:28.219Z,1021.49
2016-10-27T07:14:37.690Z,1021.55
2016-10-27T07:15:47.222Z,1021.59
2016-10-27T07:16:57.855Z,1021.57
2016-10-27T07:18:07.568Z,1021.56
2016-10-27T07:19:17.335Z,1021.53
2016-10-27T07:20:26.793Z,1021.48
2016-10-27T07:21:36.635Z,1021.47
2016-10-27T07:22:46.691Z,1021.49
2016-10-27T07:23:57.660Z,1021.55
2016-10-27T07:25:07.497Z,1021.56
2016-10-27T07:27:41.683Z,1021.65
2016-10-27T07:28:51.925Z,1021.68
2016-10-27T07:30:01.664Z,1021.73
2016-10-27T07:31:11.444Z,1021.78
2016-10-27T07:32:21.019Z,1021.76
2016-10-27T07:33:31.219Z,1021.82
2016-10-27T07:34:40.714Z,1021.82
2016-10-27T07:35:50.200Z,1021.78
2016-10-27T07:37:00.595Z,1021.75
2016-10-27T07:38:10.131Z,1021.82
2016-10-27T07:39:20.062Z,1021.78
2016-10-27T07:40:29.823Z,1021.84
2016-10-27T07:41:40.052Z,1021.83
2016-10-27T07:42:49.792Z,1021.81
2016-10-27T07:43:59.354Z,1021.78
2016-10-27T07:45:08.869Z,1021.83
2016-10-27T07:46:18.457Z,1021.77
2016-10-27T07:47:28.069Z,1021.79
2016-10-27T07:48:38.150Z,1021.78
2016-10-27T07:49:47.718Z,1021.85
2016-10-27T07:50:57.570Z,1021.84
2016-10-27T07:52:07.720Z,1021.82
2016-10-27T07:53:17.644Z,1021.85
2016-10-27T07:54:27.474Z,1021.82
2016-10-27T07:55:36.927Z,1021.8
2016-10-27T07:56:46.438Z,1021.82
2016-10-27T07:57:56.220Z,1021.77
2016-10-27T07:59:06.099Z,1021.81
2016-10-27T08:00:15.777Z,1021.79
2016-10-27T08:01:25.629Z,1021.79
2016-10-27T08:02:35.133Z,1021.84
2016-10-27T08:03:46.361Z,1021.83
2016-10-27T08:04:55.867Z,1021.88
2016-10-27T08:06:06.039Z,1021.86
2016-10-27T08:07:15.508Z,1021.85
2016-10-27T08:08:25.612Z,1021.86
2016-10-27T08:09:35.159Z,1021.86
2016-10-27T08:10:44.765Z,1021.89
2016-10-27T08:11:54.899Z,1021.89
2016-10-27T08:13:04.860Z,1021.93
2016-10-27T08:14:14.713Z,1021.92
2016-10-27T08:15:24.468Z,1021.93
2016-10-27T08:16:34.650Z,1021.91
2016-10-27T08:17:44.816Z,1021.93
2016-10-27T08:18:55.015Z,1021.92
2016-10-27T08:20:05.626Z,1021.93
2016-10-27T08:21:15.279Z,1021.95
2016-10-27T08:22:25.049Z,1021.99
2016-10-27T08:23:35.727Z,1022.03
2016-10-27T08:24:45.863Z,1022.05
2016-10-27T08:25:56.881Z,1022.04
2016-10-27T08:27:06.478Z,1022.04
2016-10-27T08:28:16.733Z,1022.05
2016-10-27T08:29:27.221Z,1022.06
2016-10-27T08:30:37.470Z,1022.06
2016-10-27T08:31:47.375Z,1022.1
2016-10-27T08:32:57.050Z,1022.07
2016-10-27T08:34:06.699Z,1022.11
2016-10-27T08:35:17.290Z,1022.15
2016-10-27T08:36:26.894Z,1022.21
2016-10-27T08:37:37.149Z,1022.22
2016-10-27T08:38:46.690Z,1022.24
2016-10-27T08:39:56.583Z,1022.25
2016-10-27T08:41:06.588Z,1022.28
2016-10-27T08:42:17.319Z,1022.25
2016-10-27T08:43:27.162Z,1022.25
2016-10-27T08:44:36.782Z,1022.28
2016-10-27T08:45:47.287Z,1022.24
2016-10-27T08:46:57.060Z,1022.27
2016-10-27T08:48:07.341Z,1022.24
2016-10-27T08:49:17.066Z,1022.28
2016-10-27T08:50:26.602Z,1022.28
2016-10-27T08:51:36.401Z,1022.28
2016-10-27T08:52:46.597Z,1022.3
2016-10-27T08:53:56.122Z,1022.32
2016-10-27T08:55:06.476Z,1022.24
2016-10-27T08:56:16.098Z,1022.26
2016-10-27T08:57:25.961Z,1022.3
2016-10-27T08:58:36.450Z,1022.25
2016-10-27T08:59:46.082Z,1022.26
2016-10-27T09:00:55.776Z,1022.29
2016-10-27T09:02:05.830Z,1022.22
2016-10-27T09:03:16.165Z,1022.29
2016-10-27T09:04:26.172Z,1022.25
2016-10-27T09:05:35.675Z,1022.29
2016-10-27T09:07:00.784Z,1022.24
2016-10-27T09:08:10.808Z,1022.25
2016-10-27T09:09:20.392Z,1022.22
2016-10-27T09:10:30.151Z,1022.18
2016-10-27T09:11:39.816Z,1022.23
2016-10-27T09:12:50.058Z,1022.2
2016-10-27T09:13:59.554Z,1022.16
2016-10-27T09:15:09.492Z,1022.16
2016-10-27T09:16:19.774Z,1022.19
2016-10-27T09:17:29.570Z,1022.15
2016-10-27T09:18:39.118Z,1022.17
2016-10-27T09:19:49.005Z,1022.22
2016-10-27T09:20:59.434Z,1022.2
2016-10-27T09:22:09.238Z,1022.22
2016-10-27T09:23:18.769Z,1022.19
2016-10-27T09:24:28.988Z,1022.18
2016-10-27T09:25:38.559Z,1022.19
2016-10-27T09:26:48.384Z,1022.2
2016-10-27T09:27:58.252Z,1022.2
2016-10-27T09:29:07.701Z,1022.21
2016-10-27T09:30:17.658Z,1022.2
2016-10-27T09:31:27.546Z,1022.25
2016-10-27T09:32:37.443Z,1022.27
2016-10-27T09:33:47.642Z,1022.26
2016-10-27T09:34:58.291Z,1022.21
2016-10-27T09:36:07.771Z,1022.27
2016-10-27T09:37:17.525Z,1022.27
2016-10-27T09:38:27.059Z,1022.29
2016-10-27T09:39:37.382Z,1022.33
2016-10-27T09:40:47.031Z,1022.28
2016-10-27T09:41:56.895Z,1022.32
2016-10-27T09:43:06.624Z,1022.36
2016-10-27T09:44:16.942Z,1022.34
2016-10-27T09:45:26.838Z,1022.33
2016-10-27T09:46:36.470Z,1022.33
2016-10-27T09:47:46.199Z,1022.28
2016-10-27T09:48:55.885Z,1022.29
2016-10-27T09:50:06.262Z,1022.3
2016-10-27T09:51:16.603Z,1022.27
2016-10-27T09:52:26.333Z,1022.29
2016-10-27T09:53:36.156Z,1022.26
2016-10-27T09:54:45.705Z,1022.24
2016-10-27T09:55:55.614Z,1022.28
2016-10-27T09:57:05.448Z,1022.33
2016-10-27T09:58:15.080Z,1022.32
2016-10-27T09:59:24.685Z,1022.34
2016-10-27T10:00:35.118Z,1022.33
2016-10-27T10:01:44.589Z,1022.35
2016-10-27T10:02:55.245Z,1022.35
2016-10-27T10:04:04.705Z,1022.32
2016-10-27T10:05:15.041Z,1022.31
2016-10-27T10:06:24.766Z,1022.28
2016-10-27T10:07:35.708Z,1022.26
2016-10-27T10:08:46.091Z,1022.27
2016-10-27T10:09:56.120Z,1022.25
2016-10-27T10:11:05.737Z,1022.22
2016-10-27T10:12:16.434Z,1022.25
2016-10-27T10:13:26.665Z,1022.25
2016-10-27T10:14:36.503Z,1022.24
2016-10-27T10:15:45.956Z,1022.24
2016-10-27T10:16:55.497Z,1022.24
2016-10-27T10:18:05.216Z,1022.24
2016-10-27T10:19:14.975Z,1022.31
2016-10-27T10:20:25.336Z,1022.27
2016-10-27T10:21:34.908Z,1022.25
2016-10-27T10:22:44.800Z,1022.26
2016-10-27T10:24:09.894Z,1022.25
2016-10-27T10:25:20.659Z,1022.25
2016-10-27T10:26:31.049Z,1022.25
2016-10-27T10:27:40.810Z,1022.26
2016-10-27T10:28:51.095Z,1022.23
2016-10-27T10:30:00.677Z,1022.23
2016-10-27T10:31:10.664Z,1022.23
2016-10-27T10:32:21.282Z,1022.21
2016-10-27T10:33:30.977Z,1022.23
2016-10-27T10:34:40.973Z,1022.2
2016-10-27T10:35:51.199Z,1022.17
2016-10-27T10:37:15.832Z,1022.16
2016-10-27T10:38:25.746Z,1022.15
2016-10-27T10:39:35.563Z,1022.13
2016-10-27T10:40:45.503Z,1022.15
2016-10-27T10:41:55.036Z,1022.15
2016-10-27T10:43:05.148Z,1022.1
2016-10-27T10:44:15.521Z,1022.08
2016-10-27T10:45:25.705Z,1022.07
2016-10-27T10:46:35.209Z,1022.06
2016-10-27T10:47:44.987Z,1022.12
2016-10-27T10:48:54.537Z,1022.1
2016-10-27T10:50:04.413Z,1022.04
2016-10-27T10:51:14.551Z,1022.09
2016-10-27T10:52:24.276Z,1022.12
2016-10-27T10:53:33.893Z,1022.15
2016-10-27T10:54:43.506Z,1022.19
2016-10-27T10:55:53.987Z,1022.15
2016-10-27T10:57:03.879Z,1022.19
2016-10-27T10:58:13.956Z,1022.16
2016-10-27T10:59:23.606Z,1022.21
2016-10-27T11:00:33.154Z,1022.18
2016-10-27T11:01:43.431Z,1022.18
2016-10-27T11:02:53.277Z,1022.25
2016-10-27T11:04:03.693Z,1022.19
2016-10-27T11:05:13.189Z,1022.21
2016-10-27T11:06:22.693Z,1022.15
2016-10-27T11:07:32.568Z,1022.15
2016-10-27T11:08:42.780Z,1022.12
2016-10-27T11:09:52.446Z,1022.16
2016-10-27T11:11:01.958Z,1022.15
2016-10-27T11:12:11.553Z,1022.17
2016-10-27T11:13:21.363Z,1022.15
2016-10-27T11:14:31.578Z,1022.14
2016-10-27T11:15:41.432Z,1022.07
2016-10-27T11:16:51.366Z,1022.1
2016-10-27T11:18:01.157Z,1022.1
2016-10-27T11:19:11.009Z,1022.1
2016-10-27T11:20:20.837Z,1022.05
2016-10-27T11:21:30.696Z,1022.07
2016-10-27T11:22:40.163Z,1022.09
2016-10-27T11:23:49.672Z,1022.05
2016-10-27T11:25:00.055Z,1022.05
2016-10-27T11:26:10.130Z,1022.06
2016-10-27T11:27:20.265Z,1022.06
2016-10-27T11:28:29.958Z,1022.03
2016-10-27T11:29:39.666Z,1021.99
2016-10-27T11:30:49.895Z,1021.93
2016-10-27T11:31:59.713Z,1021.95
2016-10-27T11:33:09.388Z,1021.97
2016-10-27T11:34:18.914Z,1021.91
2016-10-27T11:35:28.944Z,1021.95
2016-10-27T11:36:39.314Z,1021.94
2016-10-27T11:37:48.859Z,1021.95
2016-10-27T11:38:58.815Z,1021.97
2016-10-27T11:40:08.399Z,1021.94
2016-10-27T11:41:18.555Z,1021.94
2016-10-27T11:42:28.905Z,1021.92
2016-10-27T11:43:39.775Z,1021.94
2016-10-27T11:44:49.337Z,1021.92
2016-10-27T11:46:14.100Z,1021.93
2016-10-27T11:47:24.026Z,1021.96
2016-10-27T11:48:34.060Z,1021.89
2016-10-27T11:49:44.070Z,1021.88
2016-10-27T11:50:53.909Z,1021.93
2016-10-27T11:52:03.519Z,1021.91
2016-10-27T11:53:13.141Z,1021.9
2016-10-27T11:54:23.268Z,1021.89
2016-10-27T11:55:32.856Z,1021.85
2016-10-27T11:56:43.060Z,1021.9
2016-10-27T11:57:53.312Z,1021.91
2016-10-27T11:59:03.821Z,1021.91
2016-10-27T12:00:14.319Z,1021.98
2016-10-27T12:01:24.601Z,1022
2016-10-27T12:03:59.311Z,1022.01
2016-10-27T12:05:10.150Z,1021.97
2016-10-27T12:06:19.906Z,1021.92
2016-10-27T12:07:29.489Z,1021.98
2016-10-27T12:08:38.992Z,1021.91
2016-10-27T12:09:48.967Z,1021.94
2016-10-27T12:10:59.808Z,1021.92
2016-10-27T12:12:09.612Z,1021.94
2016-10-27T12:13:19.146Z,1021.99
2016-10-27T12:14:28.936Z,1021.95
2016-10-27T12:15:39.188Z,1021.94
2016-10-27T12:16:48.939Z,1021.93
2016-10-27T12:17:58.721Z,1021.89
2016-10-27T12:19:08.601Z,1021.85
2016-10-27T12:20:18.269Z,1021.86
2016-10-27T12:21:27.784Z,1021.84
2016-10-27T12:22:37.651Z,1021.88
2016-10-27T12:23:47.355Z,1021.84
2016-10-27T12:24:56.912Z,1021.86
2016-10-27T12:26:07.149Z,1021.81
2016-10-27T12:27:16.983Z,1021.78
2016-10-27T12:28:26.899Z,1021.81
2016-10-27T12:29:37.226Z,1021.77
2016-10-27T12:30:46.770Z,1021.76
2016-10-27T12:31:57.000Z,1021.73
2016-10-27T12:33:06.600Z,1021.72
2016-10-27T12:34:16.070Z,1021.7
2016-10-27T12:35:26.555Z,1021.73
2016-10-27T12:36:36.222Z,1021.73
2016-10-27T12:37:46.423Z,1021.7
2016-10-27T12:38:56.014Z,1021.73
2016-10-27T12:40:06.849Z,1021.72
2016-10-27T12:41:16.991Z,1021.73
2016-10-27T12:42:26.632Z,1021.67
2016-10-27T12:43:36.608Z,1021.68
2016-10-27T12:44:46.134Z,1021.65
2016-10-27T12:45:55.727Z,1021.66
2016-10-27T12:47:05.552Z,1021.56
2016-10-27T12:48:15.573Z,1021.57
2016-10-27T12:49:25.091Z,1021.58
2016-10-27T12:50:34.835Z,1021.62
2016-10-27T12:51:44.544Z,1021.62
2016-10-27T12:52:54.470Z,1021.57
2016-10-27T12:54:04.335Z,1021.59
2016-10-27T12:55:14.115Z,1021.59
2016-10-27T12:56:23.949Z,1021.57
2016-10-27T12:57:33.428Z,1021.57
2016-10-27T12:58:43.576Z,1021.58
2016-10-27T12:59:53.508Z,1021.59
2016-10-27T13:01:03.457Z,1021.55
2016-10-27T13:02:13.433Z,1021.59
2016-10-27T13:03:23.351Z,1021.54
2016-10-27T13:04:33.298Z,1021.52
2016-10-27T13:05:42.856Z,1021.51
2016-10-27T13:06:52.483Z,1021.48
2016-10-27T13:08:02.913Z,1021.54
2016-10-27T13:09:12.739Z,1021.48
2016-10-27T13:10:23.955Z,1021.52
2016-10-27T13:11:33.925Z,1021.53
2016-10-27T13:12:43.931Z,1021.58
2016-10-27T13:13:53.421Z,1021.54
2016-10-27T13:15:03.511Z,1021.62
2016-10-27T13:16:13.791Z,1021.63
2016-10-27T13:17:23.815Z,1021.65
2016-10-27T13:18:33.839Z,1021.6
2016-10-27T13:19:43.444Z,1021.61
2016-10-27T13:20:53.441Z,1021.58
2016-10-27T13:22:03.381Z,1021.59
2016-10-27T13:23:12.948Z,1021.53
2016-10-27T13:24:22.780Z,1021.58
2016-10-27T13:25:32.859Z,1021.56
2016-10-27T13:26:43.000Z,1021.55
2016-10-27T13:27:54.194Z,1021.56
2016-10-27T13:29:19.815Z,1021.48
2016-10-27T13:30:31.529Z,1021.48
2016-10-27T13:31:41.253Z,1021.47
2016-10-27T13:32:50.889Z,1021.51
2016-10-27T13:34:00.873Z,1021.49
2016-10-27T13:35:10.850Z,1021.42
2016-10-27T13:36:20.869Z,1021.44
2016-10-27T13:37:31.187Z,1021.43
2016-10-27T13:38:41.902Z,1021.49
2016-10-27T13:39:51.783Z,1021.52
2016-10-27T13:41:16.293Z,1021.53
2016-10-27T13:42:26.511Z,1021.61
2016-10-27T13:43:36.261Z,1021.61
2016-10-27T13:44:46.061Z,1021.63
2016-10-27T13:45:55.833Z,1021.63
2016-10-27T13:47:05.671Z,1021.63
2016-10-27T13:48:16.613Z,1021.65
2016-10-27T13:49:26.605Z,1021.63
2016-10-27T13:50:36.745Z,1021.58
2016-10-27T13:51:47.078Z,1021.64
2016-10-27T13:52:57.599Z,1021.65
2016-10-27T13:54:07.096Z,1021.66
2016-10-27T13:55:17.401Z,1021.63
2016-10-27T13:56:26.867Z,1021.69
2016-10-27T13:57:37.797Z,1021.67
2016-10-27T13:58:48.247Z,1021.64
2016-10-27T13:59:57.782Z,1021.62
2016-10-27T14:01:07.718Z,1021.66
2016-10-27T14:02:17.516Z,1021.68
2016-10-27T14:03:27.572Z,1021.68
2016-10-27T14:04:38.617Z,1021.68
2016-10-27T14:05:48.478Z,1021.7
2016-10-27T14:06:58.259Z,1021.68
2016-10-27T14:08:08.404Z,1021.72
2016-10-27T14:09:18.441Z,1021.69
2016-10-27T14:10:28.847Z,1021.71
2016-10-27T14:11:38.854Z,1021.69
2016-10-27T14:12:48.852Z,1021.69
2016-10-27T14:13:59.233Z,1021.64
2016-10-27T14:15:09.365Z,1021.63
2016-10-27T14:16:19.854Z,1021.57
2016-10-27T14:17:29.701Z,1021.56
2016-10-27T14:18:39.870Z,1021.56
2016-10-27T14:19:49.755Z,1021.54
2016-10-27T14:21:00.593Z,1021.56
2016-10-27T14:22:10.666Z,1021.58